createdAt,value
2023-03-15T00:00:12.346Z,62.95
2023-03-15T00:05:14.101Z,63.24
2023-03-15T00:10:15.916Z,62.85
2023-03-15T00:15:17.515Z,62.51
2023-03-15T00:20:19.964Z,63.31
2023-03-15T00:25:21.758Z,63.30
2023-03-15T00:30:23.451Z,63.60
2023-03-15T00:35:25.292Z,64.36
2023-03-15T00:40:27.197Z,63.84
2023-03-15T00:45:28.745Z,64.25
2023-03-15T00:50:30.315Z,64.46
2023-03-15T00:55:31.889Z,64.55
2023-03-15T01:00:33.481Z,64.16
2023-03-15T01:05:36.217Z,63.75
2023-03-15T01:10:37.771Z,64.06
2023-03-15T01:15:39.414Z,64.11
2023-03-15T01:20:43.787Z,63.97
2023-03-15T01:25:45.320Z,64.12
2023-03-15T01:30:51.396Z,64.91
2023-03-15T01:36:01.027Z,63.84
2023-03-15T01:41:03.449Z,64.04
2023-03-15T01:46:06.958Z,64.39
2023-03-15T01:51:21.837Z,64.26
2023-03-15T01:56:24.428Z,64.78
2023-03-15T02:01:26.175Z,64.74
2023-03-15T02:06:27.996Z,64.44
2023-03-15T02:11:30.561Z,64.72
2023-03-15T02:16:32.302Z,65.65
2023-03-15T02:22:20.654Z,64.21
2023-03-15T02:27:28.893Z,64.83
2023-03-15T02:32:31.351Z,64.44
2023-03-15T02:37:33.048Z,63.59
2023-03-15T02:42:34.644Z,63.70
2023-03-15T02:47:36.262Z,64.50
2023-03-15T02:52:37.853Z,64.24
2023-03-15T02:57:39.545Z,64.09
2023-03-15T03:02:43.555Z,64.97
2023-03-15T03:07:45.806Z,65.92
2023-03-15T03:12:53.301Z,65.35
2023-03-15T03:17:59.581Z,65.67
2023-03-15T03:23:05.902Z,66.17
2023-03-15T03:28:07.926Z,66.79
2023-03-15T03:33:09.696Z,67.88
2023-03-15T03:38:11.979Z,69.03
2023-03-15T03:43:16.855Z,69.22
2023-03-15T03:48:19.323Z,68.36
2023-03-15T03:53:20.942Z,68.07
2023-03-15T03:58:23.232Z,67.92
2023-03-15T04:03:38.980Z,69.23
2023-03-15T04:08:45.302Z,70.23
2023-03-15T04:13:51.636Z,69.62
2023-03-15T04:18:56.536Z,68.71
2023-03-15T04:23:59.980Z,68.93
2023-03-15T04:29:14.539Z,67.29
2023-03-15T04:34:38.912Z,66.44
2023-03-15T04:40:02.615Z,66.65
2023-03-15T04:45:23.795Z,65.46
2023-03-15T04:50:48.669Z,65.28
2023-03-15T04:55:56.479Z,64.59
2023-03-15T05:01:23.270Z,64.20
2023-03-15T05:06:32.917Z,65.78
2023-03-15T05:11:55.415Z,66.31
2023-03-15T05:17:33.651Z,65.35
2023-03-15T05:22:54.690Z,65.29
2023-03-15T05:28:18.321Z,64.63
2023-03-15T05:33:46.838Z,65.33
2023-03-15T05:39:08.865Z,65.41
2023-03-15T05:44:36.916Z,65.59
2023-03-15T05:49:38.481Z,65.59
2023-03-15T05:55:00.419Z,65.53
2023-03-15T06:00:02.094Z,65.43
2023-03-15T06:05:15.791Z,65.05
2023-03-15T06:10:17.566Z,64.85
2023-03-15T06:15:19.993Z,64.37
2023-03-15T06:20:22.803Z,64.27
2023-03-15T06:25:24.558Z,63.79
2023-03-15T06:30:26.420Z,63.87
2023-03-15T06:35:32.115Z,63.56
2023-03-15T06:40:34.101Z,63.67
2023-03-15T06:45:35.788Z,62.63
2023-03-15T06:50:46.969Z,63.58
2023-03-15T06:55:50.772Z,62.14
2023-03-15T07:00:52.361Z,63.57
2023-03-15T07:05:54.696Z,61.50
2023-03-15T07:10:56.298Z,62.48
2023-03-15T07:15:57.945Z,62.27
2023-03-15T07:21:00.861Z,60.67
2023-03-15T07:26:02.637Z,60.19
2023-03-15T07:31:05.747Z,58.92
2023-03-15T07:36:08.108Z,60.69
2023-03-15T07:41:09.697Z,58.77
2023-03-15T07:46:15.507Z,57.75
2023-03-15T07:51:17.160Z,57.60
2023-03-15T07:56:19.784Z,57.39
2023-03-15T08:01:21.700Z,57.68
2023-03-15T08:06:23.381Z,57.19
2023-03-15T08:11:24.991Z,57.36
2023-03-15T08:16:26.675Z,54.78
2023-03-15T08:21:28.297Z,55.19
2023-03-15T08:26:29.861Z,54.81
2023-03-15T08:31:31.570Z,54.46
2023-03-15T08:36:33.212Z,53.83
2023-03-15T08:41:34.886Z,53.57
2023-03-15T08:46:36.666Z,54.56
2023-03-15T08:51:38.261Z,56.74
2023-03-15T08:56:41.317Z,61.24
2023-03-15T09:01:44.860Z,63.72
2023-03-15T09:06:46.490Z,64.41
2023-03-15T09:11:48.073Z,66.99
2023-03-15T09:16:49.691Z,68.61
2023-03-15T09:21:51.392Z,71.66
2023-03-15T09:26:52.959Z,70.21
2023-03-15T09:31:54.942Z,69.63
2023-03-15T09:36:56.987Z,69.59
2023-03-15T09:41:59.925Z,69.09
2023-03-15T09:47:10.046Z,71.10
2023-03-15T09:52:45.583Z,70.11
2023-03-15T09:57:52.124Z,68.82
2023-03-15T10:03:07.037Z,65.63
2023-03-15T10:08:17.547Z,65.50
2023-03-15T10:13:43.696Z,65.43
2023-03-15T10:18:48.105Z,63.55
2023-03-15T10:23:54.253Z,63.87
2023-03-15T10:28:55.834Z,63.48
2023-03-15T10:33:57.480Z,64.38
2023-03-15T10:38:59.324Z,62.02
2023-03-15T10:44:04.623Z,62.30
2023-03-15T10:49:14.042Z,62.10
2023-03-15T10:54:24.035Z,62.89
2023-03-15T10:59:27.791Z,61.27
2023-03-15T11:04:33.793Z,62.12
2023-03-15T11:09:44.763Z,62.50
2023-03-15T11:14:48.663Z,61.62
2023-03-15T11:20:09.486Z,63.29
2023-03-15T11:25:15.420Z,61.62
2023-03-15T11:30:17.324Z,61.04
2023-03-15T11:35:24.567Z,61.00
2023-03-15T11:40:42.540Z,59.22
2023-03-15T11:46:06.189Z,57.94
2023-03-15T11:51:16.167Z,57.81
2023-03-15T11:56:26.961Z,57.77
2023-03-15T12:01:28.538Z,59.12
2023-03-15T12:06:37.909Z,58.67
2023-03-15T12:11:41.651Z,59.75
2023-03-15T12:16:45.856Z,59.97
2023-03-15T12:21:51.640Z,58.65
2023-03-15T12:27:02.649Z,59.16
2023-03-15T12:32:04.165Z,58.04
2023-03-15T12:37:21.318Z,58.27
2023-03-15T12:42:32.060Z,57.93
2023-03-15T12:47:49.855Z,57.77
2023-03-15T12:52:53.563Z,58.02
2023-03-15T12:57:57.832Z,58.04
2023-03-15T13:03:06.401Z,58.13
2023-03-15T13:08:21.909Z,58.55
2023-03-15T13:13:39.630Z,57.78
2023-03-15T13:18:52.821Z,57.26
2023-03-15T13:23:57.715Z,57.26
2023-03-15T13:29:21.835Z,55.94
2023-03-15T13:34:24.367Z,55.48
2023-03-15T13:39:30.429Z,55.68
2023-03-15T13:44:33.543Z,55.90
2023-03-15T13:49:35.200Z,55.76
2023-03-15T13:54:36.753Z,56.74
2023-03-15T13:59:46.209Z,57.22
2023-03-15T14:04:59.852Z,56.19
2023-03-15T14:10:30.964Z,56.56
2023-03-15T14:15:32.479Z,58.61
2023-03-15T14:20:40.826Z,58.15
2023-03-15T14:25:42.883Z,56.53
2023-03-15T14:30:52.049Z,56.11
2023-03-15T14:35:57.458Z,53.88
2023-03-15T14:41:33.649Z,53.48
2023-03-15T14:46:35.256Z,54.37
2023-03-15T14:51:36.830Z,54.61
2023-03-15T14:56:39.655Z,52.98
2023-03-15T15:01:46.500Z,51.49
2023-03-15T15:06:52.103Z,51.60
2023-03-15T15:11:54.326Z,51.73
2023-03-15T15:16:56.187Z,51.38
2023-03-15T15:21:57.811Z,50.59
2023-03-15T15:29:14.688Z,50.67
2023-03-15T15:34:16.267Z,51.06
2023-03-15T15:39:27.521Z,50.35
2023-03-15T15:44:29.225Z,50.24
2023-03-15T15:49:30.815Z,51.51
2023-03-15T15:54:35.580Z,51.74
2023-03-15T15:59:37.173Z,52.15
2023-03-15T16:04:40.625Z,53.80
2023-03-15T16:09:45.539Z,53.70
2023-03-15T16:14:47.125Z,54.97
2023-03-15T16:19:52.143Z,54.82
2023-03-15T16:24:55.488Z,54.19
2023-03-15T16:29:57.164Z,54.18
2023-03-15T16:34:58.717Z,54.81
2023-03-15T16:40:01.660Z,54.42
2023-03-15T16:45:12.228Z,54.61
2023-03-15T16:50:14.131Z,55.03
2023-03-15T16:55:18.673Z,55.40
2023-03-15T17:00:20.829Z,54.86
2023-03-15T17:05:24.659Z,54.81
2023-03-15T17:10:32.618Z,54.47
2023-03-15T17:15:34.249Z,55.18
2023-03-15T17:20:35.804Z,55.31
2023-03-15T17:25:37.408Z,55.56
2023-03-15T17:30:39.012Z,56.21
2023-03-15T17:35:43.928Z,56.74
2023-03-15T17:40:45.708Z,56.85
2023-03-15T17:45:47.628Z,57.04
2023-03-15T17:50:49.374Z,57.65
2023-03-15T17:55:53.440Z,57.00
2023-03-15T18:00:55.240Z,57.74
2023-03-15T18:05:57.625Z,57.79
2023-03-15T18:10:59.291Z,59.11
2023-03-15T18:16:00.980Z,59.69
2023-03-15T18:21:02.588Z,58.94
2023-03-15T18:26:04.695Z,58.98
2023-03-15T18:31:13.982Z,59.76
2023-03-15T18:36:16.220Z,59.89
2023-03-15T18:41:20.998Z,60.87
2023-03-15T18:46:24.639Z,61.19
2023-03-15T18:51:28.078Z,62.29
2023-03-15T18:56:34.364Z,62.22
2023-03-15T19:01:36.083Z,62.77
2023-03-15T19:06:37.822Z,62.72
2023-03-15T19:11:41.716Z,63.72
2023-03-15T19:16:43.352Z,63.61
2023-03-15T19:21:44.918Z,64.02
2023-03-15T19:26:46.486Z,64.14
2023-03-15T19:31:48.043Z,64.36
2023-03-15T19:36:49.676Z,65.48
2023-03-15T19:41:51.300Z,65.85
2023-03-15T19:46:52.905Z,66.26
2023-03-15T19:51:54.487Z,66.55
2023-03-15T19:56:58.456Z,67.08
2023-03-15T20:02:00.077Z,67.13
2023-03-15T20:07:01.732Z,66.73
2023-03-15T20:12:04.036Z,67.21
2023-03-15T20:17:05.779Z,67.22
2023-03-15T20:22:07.371Z,67.57
2023-03-15T20:27:08.961Z,67.88
2023-03-15T20:32:10.608Z,67.83
2023-03-15T20:37:13.436Z,69.41
2023-03-15T20:42:15.051Z,69.46
2023-03-15T20:47:17.398Z,68.61
2023-03-15T20:52:18.931Z,69.34
2023-03-15T20:57:21.026Z,69.92
2023-03-15T21:02:22.672Z,69.76
2023-03-15T21:07:24.456Z,69.94
2023-03-15T21:12:25.998Z,70.41
2023-03-15T21:17:27.845Z,70.66
2023-03-15T21:22:29.434Z,70.83
2023-03-15T21:27:32.736Z,71.12
2023-03-15T21:32:35.557Z,71.89
2023-03-15T21:37:37.342Z,71.86
2023-03-15T21:42:39.660Z,72.02
2023-03-15T21:47:41.529Z,72.46
2023-03-15T21:52:44.850Z,72.65
2023-03-15T21:57:46.386Z,72.67
2023-03-15T22:02:48.706Z,73.32
2023-03-15T22:07:50.370Z,73.45
2023-03-15T22:12:54.557Z,73.58
2023-03-15T22:17:56.325Z,73.48
2023-03-15T22:22:57.878Z,73.82
2023-03-15T22:27:59.878Z,74.36
2023-03-15T22:33:01.707Z,74.41
2023-03-15T22:38:09.916Z,74.38
2023-03-15T22:43:11.743Z,74.50
2023-03-15T22:48:13.371Z,74.66
2023-03-15T22:53:14.936Z,74.80
2023-03-15T22:58:16.569Z,75.18
2023-03-15T23:03:18.646Z,75.18
2023-03-15T23:08:20.492Z,75.80
2023-03-15T23:13:22.080Z,75.74
2023-03-15T23:18:23.684Z,76.23
2023-03-15T23:23:27.033Z,76.84
2023-03-15T23:28:29.079Z,76.69
2023-03-15T23:33:33.973Z,76.40
2023-03-15T23:38:35.618Z,76.61
2023-03-15T23:43:37.180Z,76.98
2023-03-15T23:48:38.886Z,77.03
2023-03-15T23:53:40.533Z,77.04
2023-03-15T23:58:42.200Z,76.00
